Time;durP1;ratioP1;P1;durP2;ratioP2;P2;SDS_P1;SDS_P2;PMS_P1;PMS_P2;Temp;Humidity;BMP_temperature;BMP_pressure;BME280_temperature;BME280_humidity;BME280_pressure;Samples;Min_cycle;Max_cycle;Signal;HPM_P1;HPM_P2
2022/01/09 00:01:43;;;;;;;4.70;3.00;;;;;;;;;;5012377;28;20391;-65
2022/01/09 00:04:09;;;;;;;5.32;3.33;;;;;;;;;;5022275;28;20049;-65
2022/01/09 00:06:36;;;;;;;4.65;3.38;;;;;;;;;;5019312;28;20057;-65
2022/01/09 00:09:02;;;;;;;5.60;3.30;;;;;;;;;;4988552;28;20056;-65
2022/01/09 00:11:28;;;;;;;4.20;3.33;;;;;;;;;;5007629;28;20424;-65
2022/01/09 00:13:55;;;;;;;4.43;2.83;;;;;;;;;;5027285;28;20061;-65
2022/01/09 00:16:22;;;;;;;4.18;2.70;;;;;;;;;;5022805;28;20076;-65
2022/01/09 00:18:49;;;;;;;4.30;2.50;;;;;;;;;;5008806;28;20089;-65
2022/01/09 00:21:16;;;;;;;6.57;3.45;;;;;;;;;;5029124;28;20060;-65
2022/01/09 00:23:44;;;;;;;5.55;3.67;;;;;;;;;;5013423;28;20060;-64
2022/01/09 00:26:11;;;;;;;3.80;2.78;;;;;;;;;;5014786;28;20052;-64
2022/01/09 00:28:38;;;;;;;4.95;3.17;;;;;;;;;;5021407;28;20071;-65
2022/01/09 00:31:04;;;;;;;3.85;2.90;;;;;;;;;;5013567;28;20065;-64
2022/01/09 00:33:30;;;;;;;3.42;2.85;;;;;;;;;;5019685;28;20725;-64
2022/01/09 00:35:57;;;;;;;3.63;2.70;;;;;;;;;;5007470;28;20052;-64
2022/01/09 00:38:28;;;;;;;3.33;2.83;;;;;;;;;;5014534;28;20053;-64
2022/01/09 00:40:55;;;;;;;3.90;2.63;;;;;;;;;;5020693;28;20041;-64
2022/01/09 00:43:21;;;;;;;3.10;2.50;;;;;;;;;;5010075;28;20045;-64
2022/01/09 00:45:47;;;;;;;3.35;2.72;;;;;;;;;;5021209;28;20560;-64
2022/01/09 00:48:13;;;;;;;3.03;2.42;;;;;;;;;;5010170;28;20045;-65
2022/01/09 00:50:41;;;;;;;3.75;2.67;;;;;;;;;;5018781;28;20071;-65
2022/01/09 00:53:07;;;;;;;3.33;2.75;;;;;;;;;;5007890;28;20248;-64
2022/01/09 00:55:33;;;;;;;3.63;2.67;;;;;;;;;;5019852;28;20558;-64
2022/01/09 00:58:00;;;;;;;4.00;2.70;;;;;;;;;;5019722;28;20459;-64
2022/01/09 01:00:26;;;;;;;3.65;2.70;;;;;;;;;;5002370;28;20049;-64
2022/01/09 01:02:53;;;;;;;5.22;2.70;;;;;;;;;;5014662;28;20064;-64
2022/01/09 01:05:19;;;;;;;5.28;3.00;;;;;;;;;;5009752;28;20063;-64
2022/01/09 01:07:45;;;;;;;4.65;3.58;;;;;;;;;;5019348;28;20054;-64
2022/01/09 01:10:12;;;;;;;5.55;4.38;;;;;;;;;;5010839;28;20056;-65
2022/01/09 01:12:39;;;;;;;4.03;2.90;;;;;;;;;;5025552;28;20149;-65
2022/01/09 01:15:06;;;;;;;6.32;3.50;;;;;;;;;;5012327;28;20057;-64
2022/01/09 01:17:33;;;;;;;5.68;3.63;;;;;;;;;;5016541;28;20055;-64
2022/01/09 01:19:59;;;;;;;4.60;3.40;;;;;;;;;;5018452;28;20049;-64
2022/01/09 01:22:28;;;;;;;4.37;3.50;;;;;;;;;;5017535;28;20061;-64
2022/01/09 01:24:56;;;;;;;4.85;3.30;;;;;;;;;;5021071;28;20057;-64
2022/01/09 01:27:22;;;;;;;3.92;3.30;;;;;;;;;;5014549;28;20056;-64
2022/01/09 01:29:49;;;;;;;3.45;2.90;;;;;;;;;;5020167;28;20449;-64
2022/01/09 01:32:15;;;;;;;4.95;2.42;;;;;;;;;;5026361;28;20446;-64
2022/01/09 01:34:42;;;;;;;2.90;2.40;;;;;;;;;;5012183;28;20072;-64
2022/01/09 01:37:09;;;;;;;5.25;2.70;;;;;;;;;;5022041;28;20055;-64
2022/01/09 01:39:35;;;;;;;5.90;2.92;;;;;;;;;;5010210;28;20371;-64
2022/01/09 01:42:02;;;;;;;6.78;1.90;;;;;;;;;;5024875;28;20044;-65
2022/01/09 01:44:45;;;;;;;7.20;1.58;;;;;;;;;;5010678;28;20068;-67
2022/01/09 01:47:13;;;;;;;3.15;1.52;;;;;;;;;;5027185;28;20090;-67
2022/01/09 01:49:39;;;;;;;7.90;1.30;;;;;;;;;;5012204;28;20046;-67
2022/01/09 01:52:07;;;;;;;8.10;1.40;;;;;;;;;;5019109;28;20505;-67
2022/01/09 01:54:33;;;;;;;6.93;1.40;;;;;;;;;;5013858;28;20330;-66
2022/01/09 01:57:00;;;;;;;10.82;1.58;;;;;;;;;;5016567;28;20413;-66
2022/01/09 01:59:27;;;;;;;12.70;1.52;;;;;;;;;;5021038;28;20525;-66
2022/01/09 02:01:53;;;;;;;12.07;2.13;;;;;;;;;;5010031;28;20045;-66
2022/01/09 02:04:19;;;;;;;11.07;2.13;;;;;;;;;;5023926;28;20060;-66
2022/01/09 02:06:46;;;;;;;18.38;2.60;;;;;;;;;;5014410;28;20383;-67
2022/01/09 02:09:12;;;;;;;12.77;2.25;;;;;;;;;;5010708;28;20395;-67
2022/01/09 02:11:38;;;;;;;16.83;2.35;;;;;;;;;;5022843;28;20092;-67
2022/01/09 02:14:05;;;;;;;14.63;2.50;;;;;;;;;;5017107;28;20054;-66
2022/01/09 02:16:31;;;;;;;12.85;2.08;;;;;;;;;;5019241;28;20576;-66
2022/01/09 02:18:58;;;;;;;20.10;2.60;;;;;;;;;;5014937;28;20064;-66
2022/01/09 02:21:26;;;;;;;16.80;2.13;;;;;;;;;;5011446;28;20061;-66
2022/01/09 02:23:52;;;;;;;19.88;2.13;;;;;;;;;;5022805;28;20053;-66
2022/01/09 02:26:19;;;;;;;15.52;2.40;;;;;;;;;;4995315;28;20060;-67
2022/01/09 02:28:47;;;;;;;16.05;3.28;;;;;;;;;;5023548;28;20053;-66
2022/01/09 02:31:14;;;;;;;14.23;2.80;;;;;;;;;;5012851;28;20721;-66
2022/01/09 02:33:40;;;;;;;23.63;3.40;;;;;;;;;;5021547;28;20064;-66
2022/01/09 02:36:07;;;;;;;34.90;3.97;;;;;;;;;;5015229;28;20061;-66
2022/01/09 02:38:33;;;;;;;35.38;5.03;;;;;;;;;;5025300;28;20055;-66
2022/01/09 02:40:59;;;;;;;31.25;4.18;;;;;;;;;;5018352;28;20045;-66
2022/01/09 02:43:26;;;;;;;31.83;4.18;;;;;;;;;;5015414;28;20491;-66
2022/01/09 02:48:34;;;;;;;34.83;5.93;;;;;;;;;;5006960;28;20049;-66
2022/01/09 02:51:09;;;;;;;27.80;3.72;;;;;;;;;;5009874;28;20410;-66
2022/01/09 02:53:37;;;;;;;32.75;3.67;;;;;;;;;;5012773;28;20053;-65
2022/01/09 02:56:04;;;;;;;28.15;4.50;;;;;;;;;;5010151;28;20053;-65
2022/01/09 02:58:31;;;;;;;24.90;3.97;;;;;;;;;;5013088;28;20038;-65
2022/01/09 03:00:57;;;;;;;30.15;4.18;;;;;;;;;;5016527;28;20057;-65
2022/01/09 03:03:24;;;;;;;27.70;4.70;;;;;;;;;;5013664;28;20045;-65
2022/01/09 03:05:51;;;;;;;31.98;4.68;;;;;;;;;;5010355;28;20526;-65
2022/01/09 03:08:17;;;;;;;30.45;3.65;;;;;;;;;;5018896;28;20057;-65
2022/01/09 03:10:43;;;;;;;45.90;5.45;;;;;;;;;;5010409;28;20048;-65
2022/01/09 03:13:10;;;;;;;23.95;2.85;;;;;;;;;;5018504;28;20056;-65
2022/01/09 03:15:36;;;;;;;56.17;4.43;;;;;;;;;;5012532;28;20075;-65
2022/01/09 03:18:03;;;;;;;30.95;3.75;;;;;;;;;;5012663;28;20049;-65
2022/01/09 03:20:29;;;;;;;36.53;5.20;;;;;;;;;;5021748;28;20600;-65
2022/01/09 03:22:56;;;;;;;31.75;3.63;;;;;;;;;;5006251;28;20061;-66
2022/01/09 03:25:23;;;;;;;29.15;4.38;;;;;;;;;;5022724;28;20052;-65
2022/01/09 03:27:49;;;;;;;32.03;4.13;;;;;;;;;;5007850;28;20053;-65
2022/01/09 03:30:17;;;;;;;39.45;4.47;;;;;;;;;;5012262;28;20057;-65
2022/01/09 03:32:43;;;;;;;28.25;3.55;;;;;;;;;;5011614;28;20050;-65
2022/01/09 03:35:11;;;;;;;26.85;4.07;;;;;;;;;;5011099;28;20053;-65
2022/01/09 03:37:38;;;;;;;34.72;3.97;;;;;;;;;;5016277;28;20333;-65
2022/01/09 03:40:06;;;;;;;22.52;3.75;;;;;;;;;;5011589;28;20061;-66
2022/01/09 03:42:33;;;;;;;30.70;5.77;;;;;;;;;;5020813;28;20057;-66
2022/01/09 03:44:59;;;;;;;28.10;4.53;;;;;;;;;;4989497;28;20060;-66
2022/01/09 03:47:25;;;;;;;33.42;5.03;;;;;;;;;;5012205;28;20054;-65
2022/01/09 03:49:52;;;;;;;22.65;3.67;;;;;;;;;;4969805;28;1469365;-65
2022/01/09 03:52:19;;;;;;;29.60;3.78;;;;;;;;;;5010612;28;20380;-65
2022/01/09 03:54:45;;;;;;;30.20;4.18;;;;;;;;;;5017209;28;20045;-65
2022/01/09 03:57:11;;;;;;;35.70;3.85;;;;;;;;;;5010554;28;20584;-65
2022/01/09 03:59:38;;;;;;;34.28;4.55;;;;;;;;;;5015902;28;20064;-66
2022/01/09 04:02:04;;;;;;;33.50;3.75;;;;;;;;;;5012866;28;20045;-65
2022/01/09 04:04:30;;;;;;;25.77;3.17;;;;;;;;;;5021141;28;20041;-65
2022/01/09 04:06:57;;;;;;;25.08;3.65;;;;;;;;;;5019363;28;20045;-65
2022/01/09 04:09:28;;;;;;;25.27;2.95;;;;;;;;;;5012415;28;20537;-65
2022/01/09 04:12:03;;;;;;;26.65;3.90;;;;;;;;;;5017609;28;20050;-65
2022/01/09 04:14:31;;;;;;;34.15;3.53;;;;;;;;;;5006818;28;20154;-65
2022/01/09 04:16:59;;;;;;;28.40;2.85;;;;;;;;;;5021301;28;20451;-65
2022/01/09 04:19:25;;;;;;;30.00;4.03;;;;;;;;;;5007001;28;20065;-66
2022/01/09 04:21:51;;;;;;;23.77;3.90;;;;;;;;;;5020238;28;20041;-66
2022/01/09 04:24:18;;;;;;;28.55;4.25;;;;;;;;;;5017957;28;20045;-66
2022/01/09 04:26:44;;;;;;;24.27;3.60;;;;;;;;;;5005545;28;20060;-66
2022/01/09 04:29:10;;;;;;;36.25;4.22;;;;;;;;;;5018174;28;20044;-66
2022/01/09 04:31:37;;;;;;;23.60;3.17;;;;;;;;;;5008784;28;20045;-66
2022/01/09 04:34:03;;;;;;;32.47;4.00;;;;;;;;;;5014922;28;20413;-66
2022/01/09 04:36:29;;;;;;;19.80;3.63;;;;;;;;;;5011801;28;20053;-66
2022/01/09 04:38:56;;;;;;;23.05;3.10;;;;;;;;;;5010353;28;20426;-65
2022/01/09 04:41:22;;;;;;;18.48;3.40;;;;;;;;;;5012362;28;20853;-65
2022/01/09 04:43:50;;;;;;;26.05;3.38;;;;;;;;;;5009901;28;20425;-65
2022/01/09 04:46:23;;;;;;;25.20;3.40;;;;;;;;;;5019758;28;20057;-65
2022/01/09 04:48:53;;;;;;;22.38;3.28;;;;;;;;;;5003159;28;20514;-65
2022/01/09 04:51:19;;;;;;;21.42;3.67;;;;;;;;;;5018209;28;20414;-65
2022/01/09 04:53:45;;;;;;;19.73;2.85;;;;;;;;;;5005521;28;20037;-65
2022/01/09 04:56:12;;;;;;;18.15;3.28;;;;;;;;;;5018696;28;20076;-65
2022/01/09 04:58:38;;;;;;;16.52;3.15;;;;;;;;;;5017416;28;20052;-65
2022/01/09 05:01:04;;;;;;;27.63;3.20;;;;;;;;;;5009977;28;20053;-65
2022/01/09 05:03:31;;;;;;;27.73;3.58;;;;;;;;;;5019824;28;20053;-65
2022/01/09 05:05:57;;;;;;;24.92;3.08;;;;;;;;;;5008171;28;20050;-65
2022/01/09 05:08:24;;;;;;;22.23;3.35;;;;;;;;;;5010452;28;20049;-65
2022/01/09 05:10:50;;;;;;;20.38;2.70;;;;;;;;;;5003172;28;20049;-65
2022/01/09 05:13:16;;;;;;;23.63;3.58;;;;;;;;;;5021263;28;20299;-65
2022/01/09 05:15:43;;;;;;;28.98;3.22;;;;;;;;;;5018425;28;20053;-65
2022/01/09 05:18:14;;;;;;;17.17;2.60;;;;;;;;;;5009758;28;20049;-65
2022/01/09 05:20:43;;;;;;;17.17;2.83;;;;;;;;;;5014303;28;20303;-65
2022/01/09 05:23:10;;;;;;;21.02;3.15;;;;;;;;;;5003050;28;20049;-65
2022/01/09 05:25:36;;;;;;;22.20;2.58;;;;;;;;;;5016566;28;20046;-65
2022/01/09 05:28:03;;;;;;;17.90;2.65;;;;;;;;;;5009242;28;20068;-65
2022/01/09 05:30:29;;;;;;;17.65;2.47;;;;;;;;;;5011923;28;20068;-65
2022/01/09 05:32:56;;;;;;;17.20;3.03;;;;;;;;;;5018313;28;20053;-65
2022/01/09 05:35:22;;;;;;;17.58;2.72;;;;;;;;;;5004581;28;20057;-66
2022/01/09 05:37:49;;;;;;;23.38;2.83;;;;;;;;;;5014213;28;20057;-66
2022/01/09 05:40:15;;;;;;;25.17;2.97;;;;;;;;;;5009111;28;20069;-66
2022/01/09 05:42:41;;;;;;;20.42;3.13;;;;;;;;;;5019271;28;20056;-67
2022/01/09 05:45:08;;;;;;;23.00;3.05;;;;;;;;;;4999424;28;20101;-66
2022/01/09 05:47:35;;;;;;;16.77;2.10;;;;;;;;;;5017902;28;20569;-66
2022/01/09 05:50:01;;;;;;;19.63;3.13;;;;;;;;;;5010818;28;20348;-66
2022/01/09 05:52:28;;;;;;;19.85;2.97;;;;;;;;;;5003927;28;20144;-66
2022/01/09 05:54:54;;;;;;;19.17;2.55;;;;;;;;;;5014477;28;20054;-66
2022/01/09 05:57:20;;;;;;;17.15;2.75;;;;;;;;;;5009926;28;20052;-66
2022/01/09 05:59:46;;;;;;;11.93;2.22;;;;;;;;;;5018477;28;20383;-66
2022/01/09 06:02:13;;;;;;;19.23;2.75;;;;;;;;;;5015440;28;20053;-66
2022/01/09 06:04:39;;;;;;;18.50;3.08;;;;;;;;;;5012015;28;20487;-66
2022/01/09 06:07:06;;;;;;;16.38;2.95;;;;;;;;;;5020501;28;20081;-66
2022/01/09 06:09:32;;;;;;;17.83;2.53;;;;;;;;;;5013798;28;20270;-66
2022/01/09 06:11:58;;;;;;;18.25;2.38;;;;;;;;;;5017919;28;20437;-66
2022/01/09 06:14:25;;;;;;;17.20;2.28;;;;;;;;;;5012851;28;20392;-66
2022/01/09 06:16:51;;;;;;;15.27;2.33;;;;;;;;;;5013104;28;20049;-66
2022/01/09 06:19:17;;;;;;;15.57;2.38;;;;;;;;;;5017000;28;20060;-66
2022/01/09 06:21:44;;;;;;;13.15;2.00;;;;;;;;;;5008882;28;20044;-66
2022/01/09 06:24:11;;;;;;;16.50;2.65;;;;;;;;;;5020753;28;20068;-66
2022/01/09 06:26:37;;;;;;;14.15;2.35;;;;;;;;;;5009691;28;20050;-66
2022/01/09 06:29:03;;;;;;;18.77;2.47;;;;;;;;;;5021435;28;20054;-66
2022/01/09 06:31:30;;;;;;;17.88;2.60;;;;;;;;;;5007117;28;20055;-66
2022/01/09 06:33:56;;;;;;;18.88;2.75;;;;;;;;;;5021676;28;20046;-64
2022/01/09 06:36:22;;;;;;;17.50;2.40;;;;;;;;;;5018225;28;20486;-65
2022/01/09 06:38:49;;;;;;;12.05;2.25;;;;;;;;;;5017945;28;20418;-64
2022/01/09 06:41:15;;;;;;;15.20;2.70;;;;;;;;;;5012993;28;20442;-64
2022/01/09 06:43:44;;;;;;;16.92;2.35;;;;;;;;;;5013713;28;20045;-64
2022/01/09 06:46:10;;;;;;;18.20;2.75;;;;;;;;;;5016066;28;20095;-64
2022/01/09 06:48:36;;;;;;;23.50;3.50;;;;;;;;;;5009920;28;20729;-64
2022/01/09 06:51:03;;;;;;;8.77;1.88;;;;;;;;;;5020045;28;20053;-64
2022/01/09 06:53:29;;;;;;;10.32;2.55;;;;;;;;;;5019654;28;20061;-64
2022/01/09 06:55:55;;;;;;;17.73;3.40;;;;;;;;;;5009931;28;20120;-64
2022/01/09 06:58:22;;;;;;;15.55;2.47;;;;;;;;;;5018520;28;20410;-64
2022/01/09 07:00:48;;;;;;;13.35;2.05;;;;;;;;;;5005361;28;20060;-64
2022/01/09 07:03:15;;;;;;;11.05;2.00;;;;;;;;;;5018376;28;20060;-64
2022/01/09 07:05:41;;;;;;;21.95;2.30;;;;;;;;;;5020520;28;20046;-64
2022/01/09 07:08:09;;;;;;;13.23;2.20;;;;;;;;;;5021914;28;20049;-64
2022/01/09 07:10:36;;;;;;;15.52;2.13;;;;;;;;;;5026130;28;20374;-64
2022/01/09 07:13:03;;;;;;;11.75;1.90;;;;;;;;;;5004075;28;20526;-63
2022/01/09 07:15:29;;;;;;;11.20;2.72;;;;;;;;;;5015064;28;20037;-64
2022/01/09 07:17:55;;;;;;;17.65;3.13;;;;;;;;;;5009976;28;20054;-64
2022/01/09 07:20:22;;;;;;;12.20;2.08;;;;;;;;;;5027858;28;20480;-64
2022/01/09 07:22:48;;;;;;;10.00;1.85;;;;;;;;;;5010010;28;20251;-64
2022/01/09 07:25:15;;;;;;;29.27;4.20;;;;;;;;;;5029183;28;20490;-64
2022/01/09 07:27:41;;;;;;;18.65;3.45;;;;;;;;;;5011909;28;20119;-64
2022/01/09 07:30:08;;;;;;;10.82;2.13;;;;;;;;;;5009241;28;20442;-64
2022/01/09 07:32:36;;;;;;;14.30;2.40;;;;;;;;;;5017061;28;20045;-64
2022/01/09 07:35:03;;;;;;;21.55;3.22;;;;;;;;;;5009367;28;20141;-64
2022/01/09 07:37:30;;;;;;;12.70;2.30;;;;;;;;;;5016347;28;20128;-64
2022/01/09 07:39:57;;;;;;;12.35;2.10;;;;;;;;;;5015365;28;20528;-65
2022/01/09 07:42:24;;;;;;;11.55;2.95;;;;;;;;;;5018281;28;20057;-64
2022/01/09 07:44:51;;;;;;;13.45;3.25;;;;;;;;;;5017787;28;20046;-64
2022/01/09 07:47:17;;;;;;;16.98;2.75;;;;;;;;;;5009871;28;20060;-65
2022/01/09 07:49:43;;;;;;;13.77;2.05;;;;;;;;;;5017585;28;20056;-65
2022/01/09 07:52:09;;;;;;;9.60;2.10;;;;;;;;;;5010734;28;20058;-65
2022/01/09 07:54:36;;;;;;;12.82;2.92;;;;;;;;;;5015935;28;20264;-64
2022/01/09 07:57:02;;;;;;;8.93;1.85;;;;;;;;;;5016850;28;20041;-64
2022/01/09 07:59:29;;;;;;;19.50;2.58;;;;;;;;;;5012418;28;20350;-65
2022/01/09 08:01:55;;;;;;;20.83;2.33;;;;;;;;;;5018425;28;20049;-65
2022/01/09 08:04:21;;;;;;;13.88;2.33;;;;;;;;;;5005896;28;20053;-66
2022/01/09 08:06:48;;;;;;;11.52;2.45;;;;;;;;;;5013279;28;20140;-65
2022/01/09 08:09:14;;;;;;;8.50;1.75;;;;;;;;;;5006308;28;20418;-66
2022/01/09 08:11:40;;;;;;;7.50;1.58;;;;;;;;;;5020670;28;20152;-66
2022/01/09 08:14:07;;;;;;;19.05;2.08;;;;;;;;;;5017108;28;20489;-65
2022/01/09 08:16:33;;;;;;;8.18;1.50;;;;;;;;;;5013316;28;20060;-65
2022/01/09 08:18:59;;;;;;;6.05;1.55;;;;;;;;;;5011850;28;20439;-65
2022/01/09 08:21:26;;;;;;;10.55;1.92;;;;;;;;;;5005211;28;20421;-65
2022/01/09 08:23:52;;;;;;;10.45;2.15;;;;;;;;;;5014893;28;20049;-65
2022/01/09 08:26:18;;;;;;;7.63;1.67;;;;;;;;;;5009806;28;20053;-65
2022/01/09 08:28:47;;;;;;;9.32;1.52;;;;;;;;;;5017220;28;20045;-65
2022/01/09 08:31:15;;;;;;;12.43;1.83;;;;;;;;;;5019788;28;20045;-65
2022/01/09 08:33:41;;;;;;;10.55;1.73;;;;;;;;;;5007273;28;20052;-65
2022/01/09 08:36:07;;;;;;;8.52;1.63;;;;;;;;;;5017302;28;20142;-65
2022/01/09 08:38:34;;;;;;;10.85;1.80;;;;;;;;;;5010919;28;20042;-65
2022/01/09 08:41:00;;;;;;;10.82;1.77;;;;;;;;;;5018527;28;20049;-65
2022/01/09 08:43:27;;;;;;;10.73;2.60;;;;;;;;;;5008891;28;20796;-65
2022/01/09 08:45:53;;;;;;;13.27;2.33;;;;;;;;;;5018447;28;20474;-65
2022/01/09 08:48:20;;;;;;;11.00;2.15;;;;;;;;;;4997751;28;20049;-65
2022/01/09 08:50:46;;;;;;;12.50;3.10;;;;;;;;;;5005341;28;20064;-65
2022/01/09 08:53:12;;;;;;;15.82;2.88;;;;;;;;;;5017866;28;20068;-65
2022/01/09 08:55:39;;;;;;;12.75;1.80;;;;;;;;;;5014014;28;20427;-65
2022/01/09 08:58:05;;;;;;;10.32;1.80;;;;;;;;;;5019709;28;20053;-65
2022/01/09 09:00:31;;;;;;;10.90;2.72;;;;;;;;;;5018184;28;20096;-65
2022/01/09 09:02:58;;;;;;;12.95;2.20;;;;;;;;;;5011433;28;20084;-65
2022/01/09 09:05:24;;;;;;;13.18;2.05;;;;;;;;;;5021117;28;20102;-65
2022/01/09 09:07:51;;;;;;;8.80;2.13;;;;;;;;;;5010476;28;20045;-65
2022/01/09 09:10:17;;;;;;;12.57;1.73;;;;;;;;;;5020204;28;21225;-65
2022/01/09 09:12:43;;;;;;;10.68;2.05;;;;;;;;;;5012709;28;20604;-65
2022/01/09 09:15:11;;;;;;;13.38;1.95;;;;;;;;;;5015430;28;20406;-65
2022/01/09 09:17:38;;;;;;;14.63;2.50;;;;;;;;;;5016287;28;20049;-65
2022/01/09 09:20:05;;;;;;;11.55;1.80;;;;;;;;;;5015181;28;20567;-65
2022/01/09 09:22:31;;;;;;;9.48;2.03;;;;;;;;;;5014593;28;20056;-65
2022/01/09 09:24:58;;;;;;;11.20;1.75;;;;;;;;;;5012057;28;20053;-65
2022/01/09 09:27:30;;;;;;;9.07;1.70;;;;;;;;;;5023628;28;20053;-65
2022/01/09 09:29:57;;;;;;;13.40;2.47;;;;;;;;;;5007988;28;20049;-65
2022/01/09 09:32:23;;;;;;;14.98;2.17;;;;;;;;;;5026630;28;20049;-64
2022/01/09 09:34:50;;;;;;;8.20;1.90;;;;;;;;;;5006814;28;20070;-65
2022/01/09 09:37:16;;;;;;;10.55;1.98;;;;;;;;;;5024156;28;20052;-64
2022/01/09 09:39:43;;;;;;;11.57;1.92;;;;;;;;;;5021061;28;20486;-64
2022/01/09 09:42:09;;;;;;;16.17;2.20;;;;;;;;;;5017538;28;20406;-64
2022/01/09 09:44:36;;;;;;;12.18;2.17;;;;;;;;;;5019978;28;20057;-65
2022/01/09 09:47:03;;;;;;;9.95;2.17;;;;;;;;;;5029849;28;20059;-65
2022/01/09 09:49:29;;;;;;;11.18;2.47;;;;;;;;;;5021931;28;20412;-65
2022/01/09 09:51:56;;;;;;;8.95;2.53;;;;;;;;;;5020312;28;20044;-65
2022/01/09 09:54:22;;;;;;;10.15;2.90;;;;;;;;;;5025433;28;20062;-65
2022/01/09 09:56:49;;;;;;;18.35;4.60;;;;;;;;;;5024044;28;20046;-65
2022/01/09 09:59:22;;;;;;;20.35;3.83;;;;;;;;;;5004913;28;20048;-65
2022/01/09 10:01:49;;;;;;;16.52;4.22;;;;;;;;;;5022050;28;20049;-65
2022/01/09 10:04:15;;;;;;;19.67;3.60;;;;;;;;;;5013220;28;20056;-65
2022/01/09 10:06:44;;;;;;;8.07;2.03;;;;;;;;;;5019958;28;20149;-66
2022/01/09 10:09:11;;;;;;;14.17;2.70;;;;;;;;;;5018142;28;20045;-65
2022/01/09 10:11:42;;;;;;;15.13;2.47;;;;;;;;;;5022053;28;20064;-65
2022/01/09 10:14:12;;;;;;;12.25;2.20;;;;;;;;;;5023320;28;20060;-64
2022/01/09 10:16:41;;;;;;;14.55;2.35;;;;;;;;;;5012479;28;20288;-65
2022/01/09 10:19:08;;;;;;;18.67;2.15;;;;;;;;;;5026558;28;20057;-66
2022/01/09 10:21:34;;;;;;;13.60;2.13;;;;;;;;;;5017605;28;20049;-66
2022/01/09 10:24:02;;;;;;;11.43;2.42;;;;;;;;;;5015805;28;20053;-66
2022/01/09 10:26:29;;;;;;;11.27;2.10;;;;;;;;;;5015548;28;20053;-66
2022/01/09 10:28:56;;;;;;;13.10;2.17;;;;;;;;;;5020433;28;20053;-66
2022/01/09 10:31:22;;;;;;;8.63;2.17;;;;;;;;;;5021444;28;20053;-66
2022/01/09 10:33:56;;;;;;;13.20;3.28;;;;;;;;;;5015841;28;20045;-66
2022/01/09 10:36:35;;;;;;;17.33;3.08;;;;;;;;;;5018065;28;20053;-65
2022/01/09 10:39:01;;;;;;;;;;;;;;;;;;5014088;28;20053;-66
2022/01/09 10:41:43;;;;;;;17.73;3.17;;;;;;;;;;5023254;28;19925;-66
2022/01/09 10:44:14;;;;;;;10.13;2.22;;;;;;;;;;5015619;28;20466;-66
2022/01/09 10:46:40;;;;;;;13.95;3.55;;;;;;;;;;5034959;28;20056;-65
2022/01/09 10:49:07;;;;;;;15.52;3.20;;;;;;;;;;5020562;28;20052;-64
2022/01/09 10:51:33;;;;;;;9.82;2.72;;;;;;;;;;5007941;28;20056;-65
2022/01/09 10:54:01;;;;;;;16.88;4.10;;;;;;;;;;5020206;28;20053;-65
2022/01/09 10:56:28;;;;;;;16.98;2.55;;;;;;;;;;5007642;28;20391;-64
2022/01/09 10:58:56;;;;;;;16.92;3.10;;;;;;;;;;5025170;28;20063;-65
2022/01/09 11:01:23;;;;;;;11.38;2.90;;;;;;;;;;5015275;28;20521;-65
2022/01/09 11:03:50;;;;;;;14.43;2.70;;;;;;;;;;5019469;28;20049;-64
2022/01/09 11:06:16;;;;;;;14.90;2.97;;;;;;;;;;5016573;28;20111;-64
2022/01/09 11:08:43;;;;;;;13.13;2.70;;;;;;;;;;5014600;28;20116;-64
2022/01/09 11:11:19;;;;;;;14.43;2.65;;;;;;;;;;5021017;28;20045;-64
2022/01/09 11:13:47;;;;;;;14.02;2.58;;;;;;;;;;5013568;28;20045;-64
2022/01/09 11:16:32;;;;;;;11.87;2.20;;;;;;;;;;5021828;28;20600;-64
2022/01/09 11:19:03;;;;;;;10.75;1.85;;;;;;;;;;5008647;28;20639;-63
2022/01/09 11:21:30;;;;;;;17.75;2.95;;;;;;;;;;5021340;28;20463;-64
2022/01/09 11:24:07;;;;;;;13.13;3.05;;;;;;;;;;5012200;28;20049;-64
2022/01/09 11:26:55;;;;;;;12.88;2.40;;;;;;;;;;5021890;28;20363;-64
2022/01/09 11:29:40;;;;;;;13.10;2.22;;;;;;;;;;5024041;28;20060;-64
2022/01/09 11:32:26;;;;;;;15.77;3.05;;;;;;;;;;5013978;28;20372;-64
2022/01/09 11:35:07;;;;;;;9.25;2.42;;;;;;;;;;5017477;28;20059;-64
2022/01/09 11:37:38;;;;;;;10.80;2.00;;;;;;;;;;5002435;28;20052;-64
2022/01/09 11:40:04;;;;;;;10.73;1.95;;;;;;;;;;5026048;28;20048;-65
2022/01/09 11:42:31;;;;;;;14.75;2.22;;;;;;;;;;5013911;28;20045;-65
2022/01/09 11:44:57;;;;;;;16.02;2.60;;;;;;;;;;5025991;28;20474;-65
2022/01/09 11:47:24;;;;;;;16.50;3.72;;;;;;;;;;5003803;28;20049;-65
2022/01/09 11:49:54;;;;;;;11.55;2.50;;;;;;;;;;5019397;28;20084;-65
2022/01/09 11:52:21;;;;;;;10.05;1.90;;;;;;;;;;5017532;28;20080;-65
2022/01/09 11:54:51;;;;;;;9.52;1.83;;;;;;;;;;5009954;28;20462;-65
2022/01/09 11:57:36;;;;;;;11.60;2.00;;;;;;;;;;5017769;28;20061;-65
2022/01/09 12:00:04;;;;;;;8.43;1.88;;;;;;;;;;5008013;28;20053;-64
2022/01/09 12:02:32;;;;;;;7.47;1.80;;;;;;;;;;5012505;28;20068;-65
2022/01/09 12:05:03;;;;;;;15.75;2.70;;;;;;;;;;5012894;28;20042;-64
2022/01/09 12:07:32;;;;;;;11.93;2.58;;;;;;;;;;5019050;28;20045;-64
2022/01/09 12:09:59;;;;;;;9.98;2.08;;;;;;;;;;5012658;28;20061;-64
2022/01/09 12:12:31;;;;;;;8.27;2.05;;;;;;;;;;5026314;28;20063;-64
2022/01/09 12:15:01;;;;;;;14.85;2.35;;;;;;;;;;5015066;28;20429;-64
2022/01/09 12:17:33;;;;;;;15.25;3.55;;;;;;;;;;5014319;28;20298;-64
2022/01/09 12:20:08;;;;;;;13.80;3.08;;;;;;;;;;5016994;28;20102;-64
2022/01/09 12:22:41;;;;;;;17.48;3.47;;;;;;;;;;5019366;28;20053;-64
2022/01/09 12:25:32;;;;;;;11.88;2.50;;;;;;;;;;5019631;28;20053;-64
2022/01/09 12:28:03;;;;;;;14.30;2.00;;;;;;;;;;5005435;28;20665;-64
2022/01/09 12:30:41;;;;;;;11.77;2.30;;;;;;;;;;5018104;28;20535;-64
2022/01/09 12:33:09;;;;;;;;;;;;;;;;;;5006422;28;20045;-64
2022/01/09 12:35:46;;;;;;;8.35;2.10;;;;;;;;;;5021445;28;20749;-64
2022/01/09 12:38:13;;;;;;;13.07;2.22;;;;;;;;;;5015104;28;20053;-64
2022/01/09 12:40:41;;;;;;;14.70;2.35;;;;;;;;;;5010162;28;20049;-64
2022/01/09 12:43:07;;;;;;;10.70;1.90;;;;;;;;;;5017811;28;20050;-64
2022/01/09 12:45:34;;;;;;;16.45;2.50;;;;;;;;;;5010267;28;20045;-64
2022/01/09 12:48:03;;;;;;;16.08;2.33;;;;;;;;;;5019014;28;20053;-64
2022/01/09 12:50:29;;;;;;;12.02;2.30;;;;;;;;;;5013622;28;20076;-64
2022/01/09 12:53:14;;;;;;;10.90;2.10;;;;;;;;;;5019821;28;20049;-64
2022/01/09 12:55:59;;;;;;;9.60;2.40;;;;;;;;;;5002005;28;20049;-64
2022/01/09 12:58:28;;;;;;;16.02;2.40;;;;;;;;;;5018493;28;20053;-65
2022/01/09 13:00:55;;;;;;;6.55;1.52;;;;;;;;;;5020855;28;20049;-64
2022/01/09 13:03:23;;;;;;;9.88;1.90;;;;;;;;;;5012188;28;20281;-64
2022/01/09 13:05:56;;;;;;;11.60;1.90;;;;;;;;;;5023611;28;20045;-64
2022/01/09 13:08:23;;;;;;;14.02;2.60;;;;;;;;;;5013665;28;20425;-64
2022/01/09 13:10:57;;;;;;;13.80;2.55;;;;;;;;;;5015450;28;20064;-64
2022/01/09 13:13:24;;;;;;;14.85;3.00;;;;;;;;;;5017378;28;20547;-64
2022/01/09 13:15:50;;;;;;;14.20;3.15;;;;;;;;;;5026301;28;20486;-65
2022/01/09 13:18:33;;;;;;;14.75;2.80;;;;;;;;;;5024224;28;20049;-65
2022/01/09 13:21:09;;;;;;;22.05;3.22;;;;;;;;;;5017867;28;20040;-65
2022/01/09 13:23:48;;;;;;;10.18;2.53;;;;;;;;;;5003349;28;20057;-65
2022/01/09 13:26:16;;;;;;;15.82;3.55;;;;;;;;;;5013946;28;20067;-65
2022/01/09 13:28:46;;;;;;;19.70;3.20;;;;;;;;;;5022006;28;20477;-65
2022/01/09 13:31:12;;;;;;;14.40;2.65;;;;;;;;;;5011509;28;20395;-65
2022/01/09 13:33:48;;;;;;;17.23;2.72;;;;;;;;;;5026010;28;20051;-65
2022/01/09 13:36:25;;;;;;;18.30;2.70;;;;;;;;;;5008788;28;20445;-65
2022/01/09 13:38:52;;;;;;;17.40;3.00;;;;;;;;;;5023108;28;20045;-65
2022/01/09 13:41:18;;;;;;;13.82;2.53;;;;;;;;;;5021908;28;20053;-65
2022/01/09 13:43:47;;;;;;;13.00;2.60;;;;;;;;;;5016622;28;20049;-65
2022/01/09 13:46:13;;;;;;;11.52;2.10;;;;;;;;;;5020165;28;20530;-65
2022/01/09 13:48:50;;;;;;;9.65;2.03;;;;;;;;;;5015206;28;20084;-65
2022/01/09 13:51:17;;;;;;;14.02;2.95;;;;;;;;;;5012663;28;20455;-65
2022/01/09 13:54:06;;;;;;;11.50;1.92;;;;;;;;;;5014514;28;20053;-65
2022/01/09 13:56:32;;;;;;;13.57;2.20;;;;;;;;;;5019625;28;20574;-65
2022/01/09 13:58:59;;;;;;;14.88;1.88;;;;;;;;;;5017326;28;20129;-65
2022/01/09 14:01:37;;;;;;;8.73;2.05;;;;;;;;;;5019929;28;20378;-66
2022/01/09 14:04:03;;;;;;;;;;;;;;;;;;5024412;28;20053;-65
2022/01/09 14:06:30;;;;;;;18.17;2.53;;;;;;;;;;5003471;28;19976;-65
2022/01/09 14:08:56;;;;;;;15.98;2.85;;;;;;;;;;5024945;28;20522;-65
2022/01/09 14:11:22;;;;;;;16.88;2.88;;;;;;;;;;5010653;28;20045;-65
2022/01/09 14:13:49;;;;;;;10.90;2.35;;;;;;;;;;5026661;28;20053;-65
2022/01/09 14:16:16;;;;;;;16.15;2.35;;;;;;;;;;5011967;28;20418;-65
2022/01/09 14:18:45;;;;;;;18.47;2.07;;;;;;;;;;5023210;28;20422;-65
2022/01/09 14:21:15;;;;;;;17.27;2.38;;;;;;;;;;5021816;28;20298;-65
2022/01/09 14:23:43;;;;;;;20.20;3.38;;;;;;;;;;5016950;28;20049;-65
2022/01/09 14:26:10;;;;;;;21.75;2.90;;;;;;;;;;5030656;28;20438;-65
2022/01/09 14:28:37;;;;;;;17.17;2.83;;;;;;;;;;5014143;28;20145;-65
2022/01/09 14:31:07;;;;;;;15.32;2.58;;;;;;;;;;5016364;28;20058;-65
2022/01/09 14:33:33;;;;;;;18.75;3.45;;;;;;;;;;5017978;28;20425;-65
2022/01/09 14:36:03;;;;;;;16.42;2.55;;;;;;;;;;5019545;28;20089;-64
2022/01/09 14:38:30;;;;;;;17.40;2.80;;;;;;;;;;5018751;28;20476;-64
2022/01/09 14:41:01;;;;;;;16.30;2.63;;;;;;;;;;5007791;28;20445;-65